createdAt,value
2023-01-08T00:00:29.272Z,35.28
2023-01-08T00:02:57.675Z,26.25
2023-01-08T00:05:27.572Z,35.03
2023-01-08T00:07:55.674Z,27.02
2023-01-08T00:10:24.002Z,31.25
2023-01-08T00:12:55.904Z,27.58
2023-01-08T00:15:24.537Z,28.33
2023-01-08T00:17:52.452Z,22.85
2023-01-08T00:20:21.882Z,32.72
2023-01-08T00:22:51.843Z,27.80
2023-01-08T00:25:21.987Z,26.23
2023-01-08T00:27:50.389Z,24.95
2023-01-08T00:30:18.450Z,24.35
2023-01-08T00:32:46.734Z,21.35
2023-01-08T00:35:14.929Z,30.27
2023-01-08T00:37:43.194Z,26.35
2023-01-08T00:40:11.345Z,24.63
2023-01-08T00:42:39.733Z,25.15
2023-01-08T00:45:10.551Z,24.40
2023-01-08T00:47:38.648Z,26.45
2023-01-08T00:50:07.093Z,24.70
2023-01-08T00:52:36.132Z,23.52
2023-01-08T00:55:04.930Z,24.85
2023-01-08T00:57:38.926Z,26.45
2023-01-08T01:00:12.268Z,29.98
2023-01-08T01:02:41.488Z,27.50
2023-01-08T01:05:17.615Z,27.25
2023-01-08T01:07:46.439Z,33.03
2023-01-08T01:10:17.112Z,32.05
2023-01-08T01:12:45.613Z,29.98
2023-01-08T01:15:16.997Z,31.13
2023-01-08T01:17:46.508Z,28.65
2023-01-08T01:20:17.386Z,27.77
2023-01-08T01:22:45.785Z,30.13
2023-01-08T01:25:14.161Z,34.17
2023-01-08T01:27:42.998Z,26.55
2023-01-08T01:30:11.690Z,32.40
2023-01-08T01:32:39.608Z,26.35
2023-01-08T01:35:08.728Z,26.95
2023-01-08T01:37:37.134Z,35.03
2023-01-08T01:40:05.850Z,27.33
2023-01-08T01:42:40.073Z,25.80
2023-01-08T01:45:30.566Z,36.03
2023-01-08T01:48:04.026Z,30.92
2023-01-08T01:50:49.017Z,34.00
2023-01-08T01:53:33.104Z,42.47
2023-01-08T01:56:04.048Z,25.63
2023-01-08T01:58:33.096Z,38.38
2023-01-08T02:01:07.250Z,32.58
2023-01-08T02:03:39.455Z,37.10
2023-01-08T02:06:28.749Z,31.17
2023-01-08T02:10:00.093Z,33.65
2023-01-08T02:12:59.140Z,42.17
2023-01-08T02:15:48.970Z,37.40
2023-01-08T02:18:29.655Z,39.85
2023-01-08T02:21:04.839Z,35.83
2023-01-08T02:24:27.900Z,34.55
2023-01-08T02:26:59.850Z,36.05
2023-01-08T02:29:29.390Z,37.67
2023-01-08T02:31:57.939Z,35.33
2023-01-08T02:34:26.088Z,40.13
2023-01-08T02:36:57.733Z,42.75
2023-01-08T02:40:20.871Z,47.47
2023-01-08T02:43:12.764Z,38.35
2023-01-08T02:45:49.172Z,45.33
2023-01-08T02:48:43.239Z,41.28
2023-01-08T02:51:20.530Z,33.67
2023-01-08T02:53:53.273Z,40.15
2023-01-08T02:56:47.147Z,51.20
2023-01-08T02:59:18.089Z,45.20
2023-01-08T03:01:46.725Z,43.08
2023-01-08T03:04:19.912Z,43.53
2023-01-08T03:06:48.666Z,34.85
2023-01-08T03:09:17.558Z,43.25
2023-01-08T03:12:04.922Z,45.08
2023-01-08T03:15:08.433Z,34.88
2023-01-08T03:17:46.777Z,47.90
2023-01-08T03:20:20.632Z,41.10
2023-01-08T03:22:53.311Z,39.40
2023-01-08T03:25:24.081Z,48.40
2023-01-08T03:28:00.812Z,32.43
2023-01-08T03:30:30.925Z,47.75
2023-01-08T03:33:02.164Z,36.17
2023-01-08T03:35:32.112Z,38.97
2023-01-08T03:38:42.743Z,39.28
2023-01-08T03:41:15.158Z,35.97
2023-01-08T03:43:43.121Z,42.50
2023-01-08T03:46:28.239Z,35.75
2023-01-08T03:48:57.172Z,38.58
2023-01-08T03:51:25.686Z,43.33
2023-01-08T03:53:59.644Z,34.15
2023-01-08T03:56:27.730Z,46.10
2023-01-08T03:58:55.780Z,36.10
2023-01-08T04:01:23.920Z,40.38
2023-01-08T04:03:51.954Z,39.58
2023-01-08T04:06:19.809Z,40.60
2023-01-08T04:08:49.213Z,32.65
2023-01-08T04:11:17.391Z,42.08
2023-01-08T04:13:45.616Z,33.60
2023-01-08T04:16:13.750Z,38.88
2023-01-08T04:18:42.006Z,31.48
2023-01-08T04:21:10.346Z,29.88
2023-01-08T04:23:38.373Z,35.80
2023-01-08T04:26:08.723Z,38.92
2023-01-08T04:28:37.373Z,34.25
2023-01-08T04:31:10.654Z,36.30
2023-01-08T04:33:38.625Z,37.08
2023-01-08T04:36:06.906Z,33.35
2023-01-08T04:38:35.090Z,39.13
2023-01-08T04:41:03.750Z,36.33
2023-01-08T04:43:32.818Z,38.42
2023-01-08T04:46:09.657Z,30.63
2023-01-08T04:48:37.640Z,30.40
2023-01-08T04:51:06.090Z,31.38
2023-01-08T04:53:38.166Z,38.88
2023-01-08T04:56:09.894Z,34.58
2023-01-08T05:01:18.527Z,37.78
2023-01-08T05:03:46.990Z,34.60
2023-01-08T05:06:15.147Z,41.15
2023-01-08T05:08:43.058Z,35.40
2023-01-08T05:11:11.460Z,30.80
2023-01-08T05:13:40.228Z,38.53
2023-01-08T05:16:10.957Z,37.47
2023-01-08T05:18:39.122Z,34.20
2023-01-08T05:21:07.026Z,33.35
2023-01-08T05:23:35.339Z,42.33
2023-01-08T05:26:05.911Z,44.42
2023-01-08T05:28:35.045Z,42.55
2023-01-08T05:31:02.975Z,38.35
2023-01-08T05:33:31.372Z,46.65
2023-01-08T05:35:59.506Z,37.92
2023-01-08T05:38:27.453Z,47.58
2023-01-08T05:40:55.684Z,39.28
2023-01-08T05:43:23.714Z,52.75
2023-01-08T05:45:51.562Z,34.65
2023-01-08T05:48:19.549Z,46.95
2023-01-08T05:50:50.522Z,43.85
2023-01-08T05:53:18.969Z,46.47
2023-01-08T05:55:47.593Z,38.10
2023-01-08T05:58:19.324Z,42.58
2023-01-08T06:00:47.813Z,38.47
2023-01-08T06:03:15.948Z,59.05
2023-01-08T06:05:44.031Z,44.95
2023-01-08T06:08:11.947Z,57.25
2023-01-08T06:10:42.734Z,51.15
2023-01-08T06:13:11.208Z,53.20
2023-01-08T06:15:40.247Z,41.58
2023-01-08T06:18:08.899Z,38.55
2023-01-08T06:20:36.887Z,46.70
2023-01-08T06:23:04.773Z,48.90
2023-01-08T06:25:32.889Z,54.70
2023-01-08T06:28:00.989Z,36.55
2023-01-08T06:30:29.331Z,55.30
2023-01-08T06:32:59.415Z,43.60
2023-01-08T06:35:28.068Z,56.58
2023-01-08T06:37:56.627Z,43.25
2023-01-08T06:40:25.504Z,43.67
2023-01-08T06:42:53.851Z,33.15
2023-01-08T06:45:21.996Z,58.50
2023-01-08T06:47:50.616Z,43.00
2023-01-08T06:50:18.938Z,47.50
2023-01-08T06:52:56.432Z,40.13
2023-01-08T06:55:25.577Z,47.35
2023-01-08T06:57:58.428Z,37.55
2023-01-08T07:00:27.470Z,58.75
2023-01-08T07:02:55.839Z,45.88
2023-01-08T07:05:24.701Z,50.75
2023-01-08T07:07:52.816Z,36.25
2023-01-08T07:10:21.020Z,43.70
2023-01-08T07:12:50.788Z,41.92
2023-01-08T07:15:18.800Z,43.58
2023-01-08T07:17:46.830Z,44.53
2023-01-08T07:20:15.090Z,43.65
2023-01-08T07:22:43.028Z,34.45
2023-01-08T07:25:11.204Z,35.25
2023-01-08T07:27:39.761Z,39.28
2023-01-08T07:30:17.995Z,37.75
2023-01-08T07:32:53.133Z,40.65
2023-01-08T07:35:20.999Z,47.17
2023-01-08T07:37:49.346Z,34.90
2023-01-08T07:40:17.913Z,55.72
2023-01-08T07:42:45.937Z,43.40
2023-01-08T07:45:13.945Z,43.97
2023-01-08T07:47:42.347Z,46.28
2023-01-08T07:50:11.125Z,42.88
2023-01-08T07:52:39.110Z,44.53
2023-01-08T07:55:08.844Z,42.75
2023-01-08T07:57:36.776Z,49.78
2023-01-08T08:00:05.812Z,41.58
2023-01-08T08:02:35.256Z,43.83
2023-01-08T08:05:04.498Z,41.58
2023-01-08T08:07:32.716Z,47.05
2023-01-08T08:10:05.339Z,33.60
2023-01-08T08:12:35.571Z,42.30
2023-01-08T08:15:05.156Z,43.17
2023-01-08T08:17:33.300Z,49.28
2023-01-08T08:20:01.323Z,39.72
2023-01-08T08:22:29.565Z,57.00
2023-01-08T08:24:57.783Z,40.65
2023-01-08T08:27:26.044Z,58.67
2023-01-08T08:29:54.175Z,43.63
2023-01-08T08:32:22.387Z,55.33
2023-01-08T08:34:50.901Z,39.88
2023-01-08T08:37:19.077Z,50.75
2023-01-08T08:39:47.394Z,45.10
2023-01-08T08:42:15.687Z,51.15
2023-01-08T08:44:43.859Z,44.15
2023-01-08T08:47:12.636Z,47.58
2023-01-08T08:49:42.266Z,50.67
2023-01-08T08:52:11.648Z,49.83
2023-01-08T08:54:41.796Z,40.67
2023-01-08T08:57:10.792Z,50.33
2023-01-08T08:59:39.025Z,42.05
2023-01-08T09:02:07.778Z,40.42
2023-01-08T09:04:36.617Z,38.92
2023-01-08T09:07:04.995Z,44.38
2023-01-08T09:09:33.383Z,53.47
2023-01-08T09:12:02.388Z,47.05
2023-01-08T09:14:30.642Z,50.53
2023-01-08T09:16:59.298Z,45.95
2023-01-08T09:19:28.411Z,59.85
2023-01-08T09:21:57.036Z,46.63
2023-01-08T09:24:25.899Z,63.42
2023-01-08T09:26:55.060Z,48.25
2023-01-08T09:29:23.462Z,51.05
2023-01-08T09:31:52.250Z,45.60
2023-01-08T09:34:20.588Z,57.83
2023-01-08T09:36:49.562Z,49.40
2023-01-08T09:39:18.284Z,54.85
2023-01-08T09:41:48.477Z,58.30
2023-01-08T09:44:23.078Z,64.78
2023-01-08T09:46:51.595Z,39.60
2023-01-08T09:49:30.470Z,65.25
2023-01-08T09:52:01.069Z,48.22
2023-01-08T09:54:32.631Z,63.88
2023-01-08T09:57:01.489Z,52.05
2023-01-08T09:59:30.389Z,70.38
2023-01-08T10:02:00.000Z,45.28
2023-01-08T10:04:33.678Z,66.93
2023-01-08T10:07:23.131Z,53.00
2023-01-08T10:09:53.409Z,61.42
2023-01-08T10:12:36.146Z,72.13
2023-01-08T10:15:09.072Z,63.65
2023-01-08T10:17:39.597Z,68.65
2023-01-08T10:20:24.217Z,85.13
2023-01-08T10:22:57.321Z,67.65
2023-01-08T10:25:28.906Z,92.72
2023-01-08T10:28:04.485Z,22.88
2023-01-08T10:30:37.920Z,26.65
2023-01-08T10:33:31.263Z,27.38
2023-01-08T10:36:04.041Z,25.67
2023-01-08T10:38:40.996Z,39.95
2023-01-08T10:41:14.512Z,33.20
2023-01-08T10:44:04.774Z,34.67
2023-01-08T10:46:42.202Z,33.20
2023-01-08T10:49:42.399Z,20.95
2023-01-08T10:52:54.397Z,19.80
2023-01-08T10:55:39.961Z,21.52
2023-01-08T10:58:11.322Z,23.25
2023-01-08T11:00:39.950Z,22.08
2023-01-08T11:03:34.300Z,26.70
2023-01-08T11:06:19.796Z,21.33
2023-01-08T11:08:58.894Z,21.98
2023-01-08T11:11:36.494Z,26.38
2023-01-08T11:14:16.559Z,20.70
2023-01-08T11:16:45.010Z,23.70
2023-01-08T11:19:45.842Z,23.67
2023-01-08T11:22:25.340Z,19.77
2023-01-08T11:24:54.639Z,23.17
2023-01-08T11:27:37.151Z,17.55
2023-01-08T11:30:21.536Z,15.07
2023-01-08T11:33:10.055Z,16.63
2023-01-08T11:36:32.912Z,17.00
2023-01-08T11:39:02.750Z,22.40
2023-01-08T11:41:43.237Z,15.02
2023-01-08T11:44:40.642Z,27.50
2023-01-08T11:47:57.622Z,21.20
2023-01-08T11:50:39.049Z,21.77
2023-01-08T11:53:40.515Z,17.05
2023-01-08T11:56:45.234Z,25.17
2023-01-08T11:59:24.293Z,22.88
2023-01-08T12:02:30.964Z,23.92
2023-01-08T12:05:31.503Z,19.65
2023-01-08T12:08:40.598Z,18.58
2023-01-08T12:11:23.215Z,22.27
2023-01-08T12:14:22.514Z,22.90
2023-01-08T12:17:04.472Z,20.58
2023-01-08T12:19:57.104Z,17.00
2023-01-08T12:23:08.828Z,22.42
2023-01-08T12:25:58.821Z,19.88
2023-01-08T12:28:44.749Z,24.58
2023-01-08T12:32:01.893Z,20.90
2023-01-08T12:34:40.743Z,24.05
2023-01-08T12:37:23.796Z,26.20
2023-01-08T12:40:23.456Z,21.95
2023-01-08T12:43:00.552Z,26.25
2023-01-08T12:45:39.847Z,25.83
2023-01-08T12:48:31.337Z,23.30
2023-01-08T12:51:19.130Z,26.73
2023-01-08T12:53:51.839Z,22.48
2023-01-08T12:56:44.557Z,22.48
2023-01-08T12:59:40.507Z,27.65
2023-01-08T13:03:00.169Z,22.67
2023-01-08T13:05:32.787Z,29.88
2023-01-08T13:08:35.891Z,29.42
2023-01-08T13:11:05.257Z,29.55
2023-01-08T13:13:44.478Z,36.17
2023-01-08T13:16:20.819Z,32.63
2023-01-08T13:18:58.638Z,28.67
2023-01-08T13:21:44.344Z,21.20
2023-01-08T13:24:37.885Z,32.33
2023-01-08T13:27:30.162Z,34.17
2023-01-08T13:29:59.836Z,25.58
2023-01-08T13:32:49.251Z,44.05
2023-01-08T13:35:27.910Z,29.20
2023-01-08T13:38:10.169Z,22.88
2023-01-08T13:40:45.131Z,28.08
2023-01-08T13:43:28.904Z,24.50
2023-01-08T13:46:04.415Z,31.27
2023-01-08T13:49:10.073Z,34.25
2023-01-08T13:51:49.617Z,27.52
2023-01-08T13:54:42.554Z,27.10
2023-01-08T13:57:21.190Z,30.00
2023-01-08T13:59:58.202Z,28.75
2023-01-08T14:02:30.728Z,29.80
2023-01-08T14:05:03.995Z,26.48
2023-01-08T14:07:39.058Z,35.80
2023-01-08T14:10:13.924Z,34.30
2023-01-08T14:12:44.556Z,21.67
2023-01-08T14:15:30.315Z,21.80
2023-01-08T14:18:02.131Z,31.98
2023-01-08T14:20:41.563Z,26.10
2023-01-08T14:23:20.496Z,31.83
2023-01-08T14:25:50.424Z,27.35
2023-01-08T14:28:23.672Z,31.48
2023-01-08T14:30:56.628Z,24.52
2023-01-08T14:33:34.933Z,31.65
2023-01-08T14:36:07.959Z,33.28
2023-01-08T14:38:37.033Z,26.42
2023-01-08T14:41:14.071Z,35.70
2023-01-08T14:43:47.703Z,29.83
2023-01-08T14:46:26.577Z,28.35
2023-01-08T14:48:56.938Z,30.67
2023-01-08T14:51:29.721Z,36.97
2023-01-08T14:54:06.320Z,37.30
2023-01-08T14:56:36.675Z,22.02
2023-01-08T14:59:12.488Z,29.88
2023-01-08T15:01:41.350Z,36.33
2023-01-08T15:04:22.861Z,39.80
2023-01-08T15:06:54.134Z,42.08
2023-01-08T15:09:32.260Z,44.00
2023-01-08T15:12:03.067Z,33.55
2023-01-08T15:14:33.964Z,33.25
2023-01-08T15:17:17.141Z,32.42
2023-01-08T15:19:59.886Z,41.38
2023-01-08T15:22:33.036Z,46.13
2023-01-08T15:25:06.981Z,42.88
2023-01-08T15:27:37.802Z,25.95
2023-01-08T15:30:28.067Z,39.13
2023-01-08T15:33:27.731Z,39.40
2023-01-08T15:35:57.122Z,34.38
2023-01-08T15:38:25.822Z,37.08
2023-01-08T15:40:55.463Z,40.20
2023-01-08T15:43:24.386Z,42.25
2023-01-08T15:45:53.534Z,44.97
2023-01-08T15:48:22.041Z,29.10
2023-01-08T15:50:52.407Z,47.55
2023-01-08T15:53:24.814Z,36.53
2023-01-08T15:55:53.499Z,39.95
2023-01-08T15:58:21.908Z,48.88
2023-01-08T16:00:50.632Z,42.10
2023-01-08T16:03:19.268Z,46.50
2023-01-08T16:05:48.132Z,39.63
2023-01-08T16:08:18.666Z,31.30
2023-01-08T16:10:52.072Z,50.30
2023-01-08T16:13:20.787Z,53.17
2023-01-08T16:15:49.106Z,32.60
2023-01-08T16:18:18.228Z,45.97
2023-01-08T16:20:47.098Z,47.90
2023-01-08T16:23:15.688Z,33.85
2023-01-08T16:25:44.737Z,40.70
2023-01-08T16:28:13.392Z,44.92
2023-01-08T16:30:44.568Z,52.17
2023-01-08T16:33:13.741Z,21.73
2023-01-08T16:35:43.021Z,48.45
2023-01-08T16:38:14.682Z,53.25
2023-01-08T16:40:43.441Z,42.83
2023-01-08T16:43:12.561Z,39.53
2023-01-08T16:45:47.382Z,43.60
2023-01-08T16:48:16.880Z,48.30
2023-01-08T16:50:46.345Z,55.28
2023-01-08T16:53:17.800Z,41.63
2023-01-08T16:55:47.635Z,48.05
2023-01-08T16:58:17.918Z,45.33
2023-01-08T17:00:48.803Z,42.45
2023-01-08T17:03:17.620Z,45.13
2023-01-08T17:05:46.843Z,45.92
2023-01-08T17:08:17.311Z,49.38
2023-01-08T17:10:46.503Z,47.03
2023-01-08T17:13:16.366Z,44.60
2023-01-08T17:15:45.388Z,39.08
2023-01-08T17:18:14.353Z,48.97
2023-01-08T17:20:43.089Z,44.28
2023-01-08T17:23:14.515Z,52.17
2023-01-08T17:25:43.617Z,35.42
2023-01-08T17:28:12.085Z,46.65
2023-01-08T17:30:40.844Z,32.83
2023-01-08T17:33:09.989Z,52.13
2023-01-08T17:35:42.757Z,48.40
2023-01-08T17:38:12.431Z,39.33
2023-01-08T17:40:40.907Z,57.97
2023-01-08T17:43:12.877Z,37.90
2023-01-08T17:45:42.072Z,48.53
2023-01-08T17:48:14.155Z,56.67
2023-01-08T17:50:42.867Z,50.60
2023-01-08T17:53:11.807Z,50.13
2023-01-08T17:55:42.028Z,48.67
2023-01-08T17:58:11.197Z,42.28
2023-01-08T18:00:40.113Z,43.80
2023-01-08T18:03:09.402Z,41.95
2023-01-08T18:05:37.980Z,45.75
2023-01-08T18:08:06.693Z,41.95
2023-01-08T18:10:35.235Z,50.40
2023-01-08T18:13:04.012Z,53.33
2023-01-08T18:15:34.855Z,45.58
2023-01-08T18:18:04.486Z,62.25
2023-01-08T18:20:33.831Z,45.70
2023-01-08T18:23:02.933Z,48.38
2023-01-08T18:25:32.022Z,41.47
2023-01-08T18:28:01.017Z,40.17
2023-01-08T18:30:31.162Z,48.85
2023-01-08T18:32:59.710Z,50.50
2023-01-08T18:35:28.928Z,43.90
2023-01-08T18:37:59.919Z,56.17
2023-01-08T18:40:28.789Z,46.83
2023-01-08T18:43:00.078Z,50.00
2023-01-08T18:45:29.657Z,46.67
2023-01-08T18:48:01.141Z,49.60
2023-01-08T18:50:29.769Z,46.40
2023-01-08T18:52:58.165Z,43.03
2023-01-08T18:55:26.871Z,48.15
2023-01-08T18:57:55.926Z,46.03
2023-01-08T19:00:26.536Z,32.35
2023-01-08T19:02:56.063Z,50.00
2023-01-08T19:05:24.699Z,36.38
2023-01-08T19:07:53.691Z,46.25
2023-01-08T19:10:22.775Z,52.17
2023-01-08T19:12:53.346Z,38.33
2023-01-08T19:15:22.697Z,50.80
2023-01-08T19:17:53.043Z,34.45
2023-01-08T19:20:21.993Z,51.35
2023-01-08T19:22:51.985Z,41.35
2023-01-08T19:25:20.694Z,50.40
2023-01-08T19:27:49.358Z,45.70
2023-01-08T19:30:18.225Z,43.70
2023-01-08T19:32:49.328Z,49.55
2023-01-08T19:35:18.285Z,49.65
2023-01-08T19:37:47.148Z,43.95
2023-01-08T19:40:15.968Z,42.30
2023-01-08T19:43:03.086Z,28.67
2023-01-08T19:45:31.741Z,33.67
2023-01-08T19:48:00.663Z,47.42
2023-01-08T19:50:30.905Z,34.75
2023-01-08T19:53:00.511Z,39.88
2023-01-08T19:55:28.788Z,49.28
2023-01-08T19:57:57.686Z,51.85
2023-01-08T20:00:26.439Z,41.72
2023-01-08T20:02:54.795Z,47.17
2023-01-08T20:05:23.341Z,42.33
2023-01-08T20:07:53.232Z,48.15
2023-01-08T20:10:21.970Z,44.10
2023-01-08T20:12:51.281Z,58.88
2023-01-08T20:15:22.364Z,42.60
2023-01-08T20:17:50.905Z,50.78
2023-01-08T20:20:20.049Z,43.60
2023-01-08T20:22:49.724Z,43.67
2023-01-08T20:25:18.331Z,46.10
2023-01-08T20:27:47.518Z,42.88
2023-01-08T20:30:16.056Z,47.55
2023-01-08T20:32:44.419Z,50.40
2023-01-08T20:35:13.054Z,44.55
2023-01-08T20:37:41.555Z,50.22
2023-01-08T20:40:13.670Z,35.38
2023-01-08T20:42:46.168Z,38.35
2023-01-08T20:49:47.196Z,42.08
2023-01-08T20:52:16.736Z,40.00
2023-01-08T20:54:45.013Z,32.53
2023-01-08T20:57:13.619Z,46.22
2023-01-08T20:59:43.568Z,37.50
2023-01-08T21:02:12.788Z,50.88
2023-01-08T21:04:42.037Z,48.42
2023-01-08T21:07:10.653Z,43.17
2023-01-08T21:09:40.310Z,40.30
2023-01-08T21:12:09.066Z,48.30
2023-01-08T21:14:38.553Z,41.67
2023-01-08T21:17:06.894Z,44.63
2023-01-08T21:19:35.572Z,41.42
2023-01-08T21:22:03.652Z,42.17
2023-01-08T21:24:33.825Z,36.60
2023-01-08T21:27:02.596Z,40.13
2023-01-08T21:29:31.304Z,41.35
2023-01-08T21:32:00.252Z,40.10
2023-01-08T21:34:29.478Z,40.92
2023-01-08T21:36:58.181Z,40.22
2023-01-08T21:39:26.459Z,40.60
2023-01-08T21:42:14.029Z,33.83
2023-01-08T21:45:01.078Z,37.13
2023-01-08T21:47:29.773Z,36.88
2023-01-08T21:49:58.718Z,31.33
2023-01-08T21:52:46.217Z,39.38
2023-01-08T21:55:18.068Z,44.63
2023-01-08T21:57:47.022Z,37.40
2023-01-08T22:00:16.687Z,38.50
2023-01-08T22:02:45.089Z,39.92
2023-01-08T22:05:13.871Z,36.83
2023-01-08T22:07:42.437Z,32.08
2023-01-08T22:10:12.726Z,35.78
2023-01-08T22:12:42.969Z,38.10
2023-01-08T22:15:12.037Z,33.70
2023-01-08T22:17:40.879Z,40.83
2023-01-08T22:20:11.579Z,34.90
2023-01-08T22:22:41.408Z,37.97
2023-01-08T22:25:11.610Z,40.33
2023-01-08T22:27:40.793Z,38.88
2023-01-08T22:30:13.093Z,39.47
2023-01-08T22:32:41.748Z,38.25
2023-01-08T22:35:10.543Z,36.13
2023-01-08T22:37:40.711Z,35.45
2023-01-08T22:40:11.206Z,29.33
2023-01-08T22:42:39.602Z,34.78
2023-01-08T22:45:08.863Z,31.63
2023-01-08T22:47:37.925Z,40.22
2023-01-08T22:50:06.768Z,33.00
2023-01-08T22:52:35.930Z,32.63
2023-01-08T22:55:05.679Z,33.47
2023-01-08T22:57:34.650Z,35.80
2023-01-08T23:00:06.018Z,37.45
2023-01-08T23:02:36.004Z,31.50
2023-01-08T23:05:05.734Z,32.95
2023-01-08T23:07:34.187Z,35.25
2023-01-08T23:10:02.995Z,33.53
2023-01-08T23:12:34.556Z,34.03
2023-01-08T23:15:04.804Z,32.80
2023-01-08T23:17:38.966Z,25.33
2023-01-08T23:20:14.831Z,35.70
2023-01-08T23:22:43.586Z,35.55
2023-01-08T23:25:12.705Z,30.98
2023-01-08T23:27:41.628Z,28.75
2023-01-08T23:30:13.316Z,37.22
2023-01-08T23:35:10.357Z,32.42
2023-01-08T23:37:39.405Z,34.55
2023-01-08T23:40:09.697Z,34.88
2023-01-08T23:42:37.989Z,34.70
2023-01-08T23:45:08.898Z,27.73
2023-01-08T23:47:39.424Z,28.10
2023-01-08T23:50:09.221Z,29.83
2023-01-08T23:52:37.644Z,27.08
2023-01-08T23:55:06.846Z,35.08
2023-01-08T23:57:35.180Z,33.10
